Time;durP1;ratioP1;P1;durP2;ratioP2;P2;SDS_P1;SDS_P2;PMS_P1;PMS_P2;Temp;Humidity;BMP_temperature;BMP_pressure;BME280_temperature;BME280_humidity;BME280_pressure;Samples;Min_cycle;Max_cycle;Signal;HPM_P1;HPM_P2
2024/01/18 00:01:31;;;;;;;20.03;9.83;;;;;;;6.96;59.05;98667.59;5131080;27;20258;-88
2024/01/18 00:03:58;;;;;;;20.77;9.50;;;;;;;7.02;58.93;98668.16;5099121;28;20635;-88
2024/01/18 00:06:25;;;;;;;25.23;8.73;;;;;;;7.11;58.81;98662.50;5117599;28;20203;-88
2024/01/18 00:08:52;;;;;;;18.60;9.10;;;;;;;7.07;58.63;98657.53;5114084;27;20190;-88
2024/01/18 00:11:17;;;;;;;18.83;9.23;;;;;;;7.05;58.73;98654.97;5119227;27;20199;-88
2024/01/18 00:13:44;;;;;;;16.77;7.90;;;;;;;7.14;58.67;98644.13;5119393;27;20183;-88
2024/01/18 00:16:09;;;;;;;15.40;7.17;;;;;;;7.15;58.79;98640.63;5119289;27;20178;-88
2024/01/18 00:18:35;;;;;;;19.50;8.20;;;;;;;7.18;58.16;98634.41;5119270;27;20532;-88
2024/01/18 00:21:03;;;;;;;14.90;7.70;;;;;;;7.18;58.27;98630.03;5138180;27;20262;-88
2024/01/18 00:23:28;;;;;;;13.43;7.00;;;;;;;7.20;58.08;98638.66;5119028;27;20187;-87
2024/01/18 00:25:54;;;;;;;15.27;7.10;;;;;;;7.23;58.38;98640.25;5137313;27;20171;-88
2024/01/18 00:28:19;;;;;;;15.07;7.37;;;;;;;7.20;58.82;98650.81;5118796;27;20282;-88
2024/01/18 00:30:46;;;;;;;17.00;8.30;;;;;;;7.20;58.41;98649.06;5137327;27;20198;-88
2024/01/18 00:33:13;;;;;;;16.63;7.87;;;;;;;7.34;58.05;98649.25;5118805;27;20179;-88
2024/01/18 00:35:39;;;;;;;16.93;8.00;;;;;;;7.28;57.63;98653.91;5137054;27;20203;-88
2024/01/18 00:38:05;;;;;;;15.47;7.77;;;;;;;7.23;58.23;98659.31;5118911;27;20216;-88
2024/01/18 00:40:31;;;;;;;14.87;7.03;;;;;;;7.22;57.99;98651.59;5136806;27;20637;-88
2024/01/18 00:42:57;;;;;;;18.40;8.00;;;;;;;7.28;57.44;98657.38;5137771;27;20171;-88
2024/01/18 00:45:24;;;;;;;17.03;7.50;;;;;;;7.25;57.39;98654.06;5118316;27;20531;-88
2024/01/18 00:47:49;;;;;;;16.07;7.70;;;;;;;7.31;57.77;98645.97;5136796;27;20175;-88
2024/01/18 00:50:16;;;;;;;20.57;7.70;;;;;;;7.25;57.84;98648.84;5118274;27;20185;-88
2024/01/18 00:52:41;;;;;;;15.97;7.93;;;;;;;7.30;58.67;98646.88;5118503;27;20209;-88
2024/01/18 00:55:07;;;;;;;19.20;6.83;;;;;;;7.37;57.87;98627.41;5137246;27;20179;-88
2024/01/18 00:57:33;;;;;;;14.67;6.93;;;;;;;7.36;57.55;98620.50;5136819;27;20628;-88
2024/01/18 01:00:00;;;;;;;15.97;7.70;;;;;;;7.39;57.62;98618.59;5118513;27;20187;-88
2024/01/18 01:02:25;;;;;;;18.90;8.43;;;;;;;7.41;57.53;98619.38;5118364;27;20175;-88
2024/01/18 01:04:52;;;;;;;18.77;8.63;;;;;;;7.45;57.52;98601.81;5117085;27;20647;-88
2024/01/18 01:07:17;;;;;;;14.17;7.53;;;;;;;7.40;57.71;98601.19;5136408;27;20624;-88
2024/01/18 01:09:44;;;;;;;18.50;8.23;;;;;;;7.38;58.00;98601.28;5118173;27;20235;-88
2024/01/18 01:12:11;;;;;;;16.57;7.83;;;;;;;7.43;57.67;98601.03;5136273;27;20199;-88
2024/01/18 01:14:36;;;;;;;17.47;9.23;;;;;;;7.53;58.16;98597.06;5135938;27;20183;-88
2024/01/18 01:17:01;;;;;;;17.13;7.67;;;;;;;7.61;57.86;98597.53;5136512;27;20175;-88
2024/01/18 01:19:28;;;;;;;18.37;7.90;;;;;;;7.54;58.23;98592.69;5136253;27;20529;-88
2024/01/18 01:21:54;;;;;;;18.73;8.00;;;;;;;7.49;58.04;98590.31;5136414;27;20167;-88
2024/01/18 01:24:19;;;;;;;21.80;9.27;;;;;;;7.53;58.33;98588.38;5136010;27;20194;-88
2024/01/18 01:26:44;;;;;;;16.57;8.47;;;;;;;7.57;57.95;98582.13;5118278;27;20179;-88
2024/01/18 01:29:11;;;;;;;24.80;9.03;;;;;;;7.60;58.26;98587.19;5117811;27;20194;-88
2024/01/18 01:31:36;;;;;;;17.87;8.63;;;;;;;7.62;58.10;98583.59;5135638;27;20206;-88
2024/01/18 01:34:02;;;;;;;15.93;7.77;;;;;;;7.63;57.97;98577.44;5136145;27;20179;-87
2024/01/18 01:36:28;;;;;;;18.23;8.90;;;;;;;7.60;57.77;98574.97;5135513;27;20211;-87
2024/01/18 01:38:55;;;;;;;18.83;8.67;;;;;;;7.58;57.56;98573.38;5135615;27;20251;-88
2024/01/18 01:41:21;;;;;;;21.17;9.20;;;;;;;7.60;57.76;98563.72;5117723;27;20174;-88
2024/01/18 01:44:01;;;;;;;21.63;9.67;;;;;;;7.58;57.70;98563.78;5135833;27;20188;-88
2024/01/18 01:46:27;;;;;;;24.23;9.73;;;;;;;7.52;57.55;98564.06;5136301;27;20250;-88
2024/01/18 01:49:00;;;;;;;21.30;9.13;;;;;;;7.52;57.93;98560.66;5117860;27;20539;-88
2024/01/18 01:51:47;;;;;;;19.80;9.37;;;;;;;7.31;58.48;98567.75;5118585;27;20203;-88
2024/01/18 01:54:18;;;;;;;18.30;8.87;;;;;;;7.27;59.16;98558.38;5136093;27;20494;-89
2024/01/18 01:56:46;;;;;;;26.10;9.87;;;;;;;7.32;58.98;98557.25;5117769;27;20198;-88
2024/01/18 01:59:14;;;;;;;18.67;8.47;;;;;;;7.38;58.63;98546.53;5117627;27;20212;-88
2024/01/18 02:01:44;;;;;;;16.00;9.20;;;;;;;7.41;58.52;98540.31;5117260;27;20197;-88
2024/01/18 02:04:12;;;;;;;13.67;8.00;;;;;;;7.43;58.39;98543.69;5117473;27;20202;-88
2024/01/18 02:06:40;;;;;;;16.97;9.53;;;;;;;7.47;58.90;98545.22;5135330;27;20519;-88
2024/01/18 02:09:08;;;;;;;20.93;10.00;;;;;;;7.53;58.22;98544.91;5117055;27;20171;-88
2024/01/18 02:11:35;;;;;;;17.00;9.57;;;;;;;7.57;58.44;98536.03;5135006;27;20191;-88
2024/01/18 02:14:02;;;;;;;19.90;8.80;;;;;;;7.59;58.26;98528.97;5135042;27;20180;-88
2024/01/18 02:16:27;;;;;;;20.47;8.87;;;;;;;7.66;57.80;98526.88;5134948;27;20179;-88
2024/01/18 02:18:54;;;;;;;21.07;10.03;;;;;;;7.68;58.11;98517.25;5135322;27;20173;-88
2024/01/18 02:21:20;;;;;;;20.37;9.83;;;;;;;7.69;57.59;98519.75;5128878;27;20179;-88
2024/01/18 02:23:50;;;;;;;18.27;9.10;;;;;;;7.81;57.57;98507.84;5114447;28;20259;-88
2024/01/18 02:26:16;;;;;;;23.20;9.83;;;;;;;7.80;57.56;98506.16;5096135;27;20191;-88
2024/01/18 02:28:58;;;;;;;24.80;9.83;;;;;;;7.75;57.41;98509.03;5116867;27;20317;-88
2024/01/18 02:31:24;;;;;;;21.20;9.73;;;;;;;7.73;57.67;98503.00;5116640;27;20230;-88
2024/01/18 02:33:49;;;;;;;25.07;9.23;;;;;;;7.73;57.99;98515.25;5134492;27;20244;-88
2024/01/18 02:36:17;;;;;;;23.97;8.87;;;;;;;7.78;57.39;98511.44;5116314;27;20183;-88
2024/01/18 02:38:44;;;;;;;21.53;9.77;;;;;;;7.79;57.42;98512.28;5134710;27;20172;-88
2024/01/18 02:41:10;;;;;;;25.00;10.23;;;;;;;7.79;57.79;98507.06;5135059;27;20191;-88
2024/01/18 02:43:36;;;;;;;20.47;10.03;;;;;;;7.83;57.66;98509.47;5114053;28;20617;-88
2024/01/18 02:46:01;;;;;;;19.97;9.77;;;;;;;7.86;57.49;98509.28;5102879;27;20182;-88
2024/01/18 02:48:26;;;;;;;22.53;9.97;;;;;;;7.83;57.91;98506.88;5134846;27;20170;-88
2024/01/18 02:50:53;;;;;;;24.37;10.13;;;;;;;7.88;57.98;98504.00;5115716;27;20210;-88
2024/01/18 02:53:20;;;;;;;17.10;9.30;;;;;;;7.92;57.71;98505.53;5113916;28;20629;-88
2024/01/18 02:55:49;;;;;;;20.50;9.20;;;;;;;7.90;57.44;98502.16;5113889;28;20182;-88
2024/01/18 02:58:16;;;;;;;27.67;11.37;;;;;;;7.98;57.48;98505.22;5122075;28;20327;-88
2024/01/18 03:00:43;;;;;;;31.93;11.57;;;;;;;7.81;57.95;98503.47;5134424;27;20173;-88
2024/01/18 03:03:09;;;;;;;23.20;10.43;;;;;;;7.74;57.60;98503.88;5116253;27;20632;-88
2024/01/18 03:05:35;;;;;;;19.23;10.10;;;;;;;7.18;59.84;98496.28;5134194;27;20186;-88
2024/01/18 03:08:01;;;;;;;24.03;9.53;;;;;;;7.14;60.33;98511.22;5116510;27;20175;-88
2024/01/18 03:10:27;;;;;;;25.23;10.07;;;;;;;7.08;61.08;98501.09;5116169;28;20186;-87
2024/01/18 03:12:52;;;;;;;28.20;10.60;;;;;;;7.30;60.67;98508.72;5133868;28;20286;-88
2024/01/18 03:15:19;;;;;;;25.43;10.63;;;;;;;7.35;60.01;98496.28;5134755;28;20266;-88
2024/01/18 03:17:44;;;;;;;23.27;10.67;;;;;;;7.38;60.37;98494.38;5116023;28;20533;-88
2024/01/18 03:20:11;;;;;;;27.47;11.10;;;;;;;7.51;60.09;98497.22;5134066;28;20631;-88
2024/01/18 03:22:40;;;;;;;26.70;10.33;;;;;;;7.51;60.44;98493.75;5134477;28;20190;-88
2024/01/18 03:25:08;;;;;;;31.17;11.80;;;;;;;7.60;60.19;98496.72;5116324;28;20254;-88
2024/01/18 03:27:33;;;;;;;20.73;10.90;;;;;;;7.73;59.86;98496.97;5118034;27;20617;-88
2024/01/18 03:30:00;;;;;;;21.87;10.90;;;;;;;7.81;59.41;98503.47;5120154;27;20199;-88
2024/01/18 03:32:25;;;;;;;24.23;11.57;;;;;;;7.84;59.44;98498.09;5138452;27;20198;-88
2024/01/18 03:34:52;;;;;;;24.70;11.83;;;;;;;7.90;59.64;98497.78;5138192;27;20189;-88
2024/01/18 03:37:17;;;;;;;26.30;10.53;;;;;;;7.90;59.53;98497.78;5138200;27;20199;-88
2024/01/18 03:39:44;;;;;;;23.37;10.80;;;;;;;7.64;60.92;98495.69;5119942;27;20639;-88
2024/01/18 03:42:10;;;;;;;24.47;11.57;;;;;;;7.77;60.34;98493.28;5137868;27;20179;-88
2024/01/18 03:44:36;;;;;;;26.10;12.30;;;;;;;7.88;60.32;98489.19;5138126;27;20266;-88
2024/01/18 03:47:02;;;;;;;29.53;11.93;;;;;;;7.87;60.70;98487.50;5119935;27;20288;-88
2024/01/18 03:49:29;;;;;;;23.67;11.90;;;;;;;7.93;60.66;98492.41;5120177;27;20633;-88
2024/01/18 03:51:54;;;;;;;24.63;11.83;;;;;;;7.92;61.47;98495.09;5119517;27;20577;-89
2024/01/18 03:54:21;;;;;;;24.20;11.60;;;;;;;7.94;61.92;98501.91;5120358;27;20193;-88
2024/01/18 03:56:47;;;;;;;23.93;12.40;;;;;;;7.93;62.05;98492.41;5106814;28;20189;-88
2024/01/18 03:59:16;;;;;;;23.73;12.30;;;;;;;7.96;62.21;98489.66;5117216;28;20180;-88
2024/01/18 04:01:43;;;;;;;29.70;12.20;;;;;;;7.92;62.56;98493.31;5121516;27;20187;-88
2024/01/18 04:04:09;;;;;;;31.90;12.03;;;;;;;8.00;62.27;98492.91;5119588;27;20183;-89
2024/01/18 04:06:36;;;;;;;26.57;11.67;;;;;;;7.94;63.00;98495.84;5119396;27;20253;-88
2024/01/18 04:09:02;;;;;;;27.83;12.23;;;;;;;8.05;62.17;98491.75;5119441;27;20175;-89
2024/01/18 04:11:29;;;;;;;26.80;11.93;;;;;;;8.07;62.72;98493.47;5137456;27;20202;-89
2024/01/18 04:14:00;;;;;;;21.10;11.37;;;;;;;8.13;62.86;98495.72;5120055;27;20179;-88
2024/01/18 04:16:26;;;;;;;25.60;11.47;;;;;;;8.21;62.48;98491.78;5137991;27;20258;-88
2024/01/18 04:18:53;;;;;;;30.57;11.97;;;;;;;8.13;62.64;98490.50;5137319;27;20267;-88
2024/01/18 04:21:19;;;;;;;26.70;10.97;;;;;;;8.16;62.82;98485.13;5137636;27;20251;-88
2024/01/18 04:23:46;;;;;;;20.50;11.30;;;;;;;8.11;63.93;98481.91;5137036;27;20207;-88
2024/01/18 04:26:13;;;;;;;26.87;10.70;;;;;;;8.10;62.97;98488.91;5119441;27;20635;-88
2024/01/18 04:28:39;;;;;;;25.37;11.03;;;;;;;8.04;63.83;98481.41;5137036;27;20655;-88
2024/01/18 04:31:05;;;;;;;28.87;14.37;;;;;;;8.03;63.71;98487.53;5136922;27;20199;-88
2024/01/18 04:33:30;;;;;;;19.17;10.97;;;;;;;8.16;63.62;98479.91;5137416;27;20600;-88
2024/01/18 04:35:57;;;;;;;21.50;10.83;;;;;;;8.11;63.67;98484.53;5136964;27;20194;-89
2024/01/18 04:38:23;;;;;;;20.77;11.60;;;;;;;8.14;63.89;98479.16;5118706;27;20179;-90
2024/01/18 04:40:50;;;;;;;26.00;12.13;;;;;;;8.20;63.60;98476.22;5136827;27;20198;-88
2024/01/18 04:43:16;;;;;;;22.73;11.63;;;;;;;8.17;63.98;98476.38;5118746;27;20625;-89
2024/01/18 04:45:41;;;;;;;21.93;10.67;;;;;;;8.24;63.83;98475.13;5136913;27;20177;-88
2024/01/18 04:48:06;;;;;;;24.37;10.60;;;;;;;8.31;63.25;98474.72;5118667;27;20181;-89
2024/01/18 04:50:33;;;;;;;22.17;11.33;;;;;;;8.27;63.19;98475.00;5118974;27;20175;-89
2024/01/18 04:53:00;;;;;;;24.23;12.03;;;;;;;8.24;63.60;98469.91;5136456;27;20247;-88
2024/01/18 04:55:26;;;;;;;24.20;11.60;;;;;;;8.18;63.93;98480.66;5118549;27;20183;-88
2024/01/18 04:57:51;;;;;;;26.80;11.40;;;;;;;8.18;64.19;98470.22;5136844;27;20188;-88
2024/01/18 05:00:19;;;;;;;22.07;11.57;;;;;;;8.26;63.96;98476.72;5137452;27;20173;-89
2024/01/18 05:02:44;;;;;;;22.97;11.23;;;;;;;8.35;64.36;98483.25;5136367;27;20204;-89
2024/01/18 05:05:11;;;;;;;25.17;11.97;;;;;;;8.34;64.09;98478.94;5118405;27;20631;-89
2024/01/18 05:07:44;;;;;;;26.40;11.43;;;;;;;8.31;64.41;98473.88;5129075;27;20265;-89
2024/01/18 05:10:11;;;;;;;22.10;11.30;;;;;;;8.30;64.51;98475.69;5116671;27;20228;-89
2024/01/18 05:12:37;;;;;;;22.77;10.93;;;;;;;8.38;64.25;98465.66;5130364;27;20213;-90
2024/01/18 05:15:04;;;;;;;25.67;11.57;;;;;;;8.41;64.51;98475.09;5115529;28;20234;-90
2024/01/18 05:17:35;;;;;;;22.83;11.43;;;;;;;8.35;64.96;98472.81;5126000;27;20196;-89
2024/01/18 05:20:05;;;;;;;18.73;10.60;;;;;;;8.33;65.14;98469.44;5117784;27;20182;-89
2024/01/18 05:22:31;;;;;;;19.00;10.07;;;;;;;8.40;65.09;98470.78;5117998;27;20192;-88
2024/01/18 05:24:59;;;;;;;19.00;10.27;;;;;;;8.45;65.34;98476.59;5135442;27;20183;-89
2024/01/18 05:27:26;;;;;;;29.17;11.63;;;;;;;8.46;64.96;98471.28;5118096;27;20205;-88
2024/01/18 05:29:51;;;;;;;21.80;11.17;;;;;;;8.44;65.07;98467.91;5118343;27;20646;-89
2024/01/18 05:32:20;;;;;;;19.20;9.47;;;;;;;8.54;64.59;98469.09;5117678;27;20228;-89
2024/01/18 05:34:52;;;;;;;22.43;10.03;;;;;;;8.45;65.21;98460.94;5136228;27;20176;-88
2024/01/18 05:37:22;;;;;;;24.57;11.77;;;;;;;8.41;65.64;98456.81;5135937;27;20169;-89
2024/01/18 05:39:48;;;;;;;29.93;14.80;;;;;;;8.43;65.42;98458.44;5117695;27;20188;-89
2024/01/18 05:42:13;;;;;;;44.50;19.80;;;;;;;8.31;65.38;98446.03;5135765;27;20164;-88
2024/01/18 05:44:39;;;;;;;34.13;16.43;;;;;;;8.36;65.26;98451.00;5135730;27;20239;-89
2024/01/18 05:47:04;;;;;;;26.50;12.50;;;;;;;8.40;65.20;98439.47;5118756;27;20170;-88
2024/01/18 05:49:30;;;;;;;29.00;13.77;;;;;;;8.40;65.26;98445.53;5135003;27;20636;-88
2024/01/18 05:51:55;;;;;;;28.20;12.13;;;;;;;8.37;65.28;98445.69;5117418;27;20658;-89
2024/01/18 05:54:21;;;;;;;25.20;12.10;;;;;;;8.31;65.87;98439.94;5136097;27;20253;-89
2024/01/18 05:56:47;;;;;;;30.70;13.63;;;;;;;8.32;65.67;98434.66;5118275;27;20623;-89
2024/01/18 05:59:13;;;;;;;33.20;14.63;;;;;;;8.44;65.89;98433.13;5117370;27;20628;-89
2024/01/18 06:01:38;;;;;;;37.13;16.53;;;;;;;8.47;65.70;98441.66;5117340;27;20722;-88
2024/01/18 06:04:04;;;;;;;35.00;18.03;;;;;;;8.55;65.62;98446.44;5117310;27;20183;-88
2024/01/18 06:06:31;;;;;;;42.87;18.77;;;;;;;8.55;65.14;98431.63;5135298;27;20180;-88
2024/01/18 06:08:57;;;;;;;47.60;18.90;;;;;;;8.50;65.35;98435.41;5116730;27;20182;-88
2024/01/18 06:11:22;;;;;;;42.93;18.93;;;;;;;8.53;64.87;98430.03;5117017;27;20204;-89
2024/01/18 06:13:48;;;;;;;43.00;19.10;;;;;;;8.43;65.42;98432.31;5117196;27;20187;-89
2024/01/18 06:16:15;;;;;;;38.47;19.43;;;;;;;8.50;64.91;98435.41;5117271;27;20263;-89
2024/01/18 06:18:42;;;;;;;32.80;17.50;;;;;;;8.48;65.25;98443.34;5117182;27;20184;-89
2024/01/18 06:21:09;;;;;;;34.27;18.30;;;;;;;8.45;65.62;98437.44;5135242;27;20202;-89
2024/01/18 06:23:35;;;;;;;31.63;17.13;;;;;;;8.36;66.08;98446.59;5116892;27;20221;-89
2024/01/18 06:26:00;;;;;;;33.07;17.40;;;;;;;8.13;66.85;98440.91;5117959;27;20230;-88
2024/01/18 06:28:26;;;;;;;40.17;19.73;;;;;;;7.95;67.70;98454.03;5117065;27;20219;-88
2024/01/18 06:30:52;;;;;;;49.37;20.97;;;;;;;8.09;67.36;98457.69;5116524;27;20188;-88
2024/01/18 06:33:17;;;;;;;50.07;24.17;;;;;;;8.04;67.69;98450.09;5117105;27;20555;-88
2024/01/18 06:35:43;;;;;;;39.00;20.60;;;;;;;8.13;67.63;98456.56;5116809;27;20181;-89
2024/01/18 06:38:08;;;;;;;43.03;21.13;;;;;;;8.22;67.50;98456.09;5116959;27;20594;-89
2024/01/18 06:40:34;;;;;;;48.13;23.07;;;;;;;8.28;67.59;98455.81;5134519;27;20187;-88
2024/01/18 06:43:00;;;;;;;49.10;23.80;;;;;;;8.31;67.50;98453.84;5117164;27;20172;-88
2024/01/18 06:45:26;;;;;;;41.30;21.83;;;;;;;8.33;67.53;98457.22;5116485;27;20211;-88
2024/01/18 06:47:51;;;;;;;42.10;21.97;;;;;;;8.43;66.64;98455.81;5116082;27;20543;-89
2024/01/18 06:50:17;;;;;;;38.43;21.30;;;;;;;8.44;66.77;98457.47;5095915;28;20179;-89
2024/01/18 06:52:42;;;;;;;42.20;18.87;;;;;;;8.52;66.99;98450.06;5113618;27;20230;-89
2024/01/18 06:55:08;;;;;;;38.50;19.30;;;;;;;8.54;66.48;98442.97;5116511;27;20223;-88
2024/01/18 06:57:34;;;;;;;38.83;18.77;;;;;;;8.63;66.35;98444.25;5116613;27;20177;-88
2024/01/18 07:00:00;;;;;;;45.80;19.60;;;;;;;8.51;67.17;98437.09;5116508;27;20180;-89
2024/01/18 07:02:25;;;;;;;51.43;21.33;;;;;;;8.56;66.92;98424.63;5133425;27;20174;-88
2024/01/18 07:04:50;;;;;;;47.33;22.07;;;;;;;8.56;66.62;98441.16;5134380;27;20178;-88
2024/01/18 07:07:16;;;;;;;49.37;22.27;;;;;;;8.58;66.70;98435.84;5134178;27;20184;-88
2024/01/18 07:09:42;;;;;;;39.70;20.50;;;;;;;8.63;66.77;98420.75;5134592;27;20184;-88
2024/01/18 07:12:09;;;;;;;41.90;19.70;;;;;;;8.66;67.02;98425.78;5116969;28;20206;-89
2024/01/18 07:14:34;;;;;;;41.30;20.30;;;;;;;8.69;66.93;98428.25;5116152;28;20182;-89
2024/01/18 07:17:01;;;;;;;41.47;20.30;;;;;;;8.73;66.82;98424.50;5134799;28;20177;-89
2024/01/18 07:19:26;;;;;;;43.23;20.47;;;;;;;8.80;67.00;98423.25;5116115;28;20182;-88
2024/01/18 07:21:53;;;;;;;40.63;20.07;;;;;;;8.83;66.98;98414.41;5116140;28;20176;-88
2024/01/18 07:24:21;;;;;;;45.03;19.87;;;;;;;8.77;66.82;98415.59;5134068;28;20190;-88
2024/01/18 07:26:47;;;;;;;41.33;20.63;;;;;;;8.86;67.24;98419.44;5116122;28;20514;-89
2024/01/18 07:29:12;;;;;;;39.33;20.33;;;;;;;8.89;67.11;98422.72;5114294;28;20687;-88
2024/01/18 07:31:38;;;;;;;45.67;19.97;;;;;;;8.84;66.84;98411.69;5113524;28;20207;-89
2024/01/18 07:34:03;;;;;;;48.07;20.73;;;;;;;8.85;66.99;98409.94;5113530;28;20617;-89
2024/01/18 07:36:29;;;;;;;39.60;21.37;;;;;;;8.90;67.27;98418.34;5113403;28;20203;-88
2024/01/18 07:38:54;;;;;;;42.97;22.97;;;;;;;8.89;66.99;98427.94;5115956;28;20256;-89
2024/01/18 07:41:20;;;;;;;44.87;21.10;;;;;;;8.91;67.70;98431.31;5133696;28;20537;-89
2024/01/18 07:43:46;;;;;;;40.43;20.20;;;;;;;9.00;68.10;98409.03;5115882;28;20591;-88
2024/01/18 07:46:11;;;;;;;39.10;18.37;;;;;;;9.11;67.64;98419.72;5115811;28;20193;-88
2024/01/18 07:48:37;;;;;;;27.90;16.53;;;;;;;9.08;67.41;98401.59;5115845;28;20174;-89
2024/01/18 07:51:02;;;;;;;32.83;16.47;;;;;;;9.04;66.78;98390.47;5133884;28;20202;-89
2024/01/18 07:53:28;;;;;;;28.07;13.90;;;;;;;9.16;66.93;98400.22;5115782;28;20186;-88
2024/01/18 07:55:53;;;;;;;19.50;10.43;;;;;;;9.22;65.73;98399.03;5134343;28;20179;-88
2024/01/18 07:58:19;;;;;;;21.97;10.40;;;;;;;9.14;63.97;98388.19;5115825;28;20270;-89
2024/01/18 08:00:44;;;;;;;16.93;8.33;;;;;;;9.11;62.54;98380.50;5133520;28;20611;-89
2024/01/18 08:03:10;;;;;;;20.80;8.77;;;;;;;9.26;62.41;98383.06;5133804;28;20247;-89
2024/01/18 08:05:35;;;;;;;15.50;8.43;;;;;;;9.37;61.96;98386.81;5115549;28;20197;-89
2024/01/18 08:08:00;;;;;;;18.73;8.37;;;;;;;9.48;62.00;98394.88;5116279;28;20623;-88
2024/01/18 08:10:26;;;;;;;16.03;8.43;;;;;;;9.51;62.00;98403.34;5115771;28;20198;-89
2024/01/18 08:12:53;;;;;;;16.20;8.83;;;;;;;9.62;61.09;98394.84;5134492;27;20199;-89
2024/01/18 08:15:18;;;;;;;21.63;10.17;;;;;;;9.66;61.35;98393.75;5119370;27;20631;-89
2024/01/18 08:17:44;;;;;;;13.50;8.27;;;;;;;9.91;60.40;98380.84;5119309;27;20170;-89
2024/01/18 08:20:12;;;;;;;19.40;9.10;;;;;;;10.12;61.39;98387.41;5137995;27;20179;-89
2024/01/18 08:22:42;;;;;;;16.00;7.87;;;;;;;10.24;59.36;98381.41;5137166;27;20174;-89
2024/01/18 08:25:08;;;;;;;18.00;9.03;;;;;;;10.55;58.27;98382.06;5137879;27;20171;-89
2024/01/18 08:27:34;;;;;;;18.10;8.83;;;;;;;10.71;57.64;98377.50;5137091;27;20189;-89
2024/01/18 08:29:59;;;;;;;15.20;8.27;;;;;;;10.80;57.15;98371.66;5137445;27;20191;-89
2024/01/18 08:32:31;;;;;;;22.07;8.30;;;;;;;11.04;55.86;98375.28;5137359;27;20195;-89
2024/01/18 08:35:01;;;;;;;15.30;8.10;;;;;;;11.16;54.55;98366.63;5137772;27;20155;-89
2024/01/18 08:37:27;;;;;;;26.27;9.37;;;;;;;11.26;54.62;98358.97;5119283;27;20258;-89
2024/01/18 08:39:52;;;;;;;18.30;7.63;;;;;;;11.47;53.76;98360.97;5137043;27;20253;-89
2024/01/18 08:42:18;;;;;;;12.87;6.77;;;;;;;11.62;53.32;98365.16;5137369;27;20171;-90
2024/01/18 08:44:45;;;;;;;20.03;8.10;;;;;;;11.41;52.18;98369.25;5118861;27;20264;-89
2024/01/18 08:47:12;;;;;;;15.30;8.03;;;;;;;11.37;52.93;98362.50;5118748;27;20181;-89
2024/01/18 08:49:38;;;;;;;17.87;8.37;;;;;;;11.24;52.18;98361.66;5119016;27;20555;-90
2024/01/18 08:52:03;;;;;;;15.90;7.83;;;;;;;11.32;52.83;98364.63;5136993;27;20198;-89
2024/01/18 08:54:30;;;;;;;17.20;8.40;;;;;;;11.43;53.67;98359.47;5136960;27;20289;-88
2024/01/18 08:56:56;;;;;;;15.10;7.97;;;;;;;11.57;52.71;98356.75;5118881;27;20190;-90
2024/01/18 08:59:23;;;;;;;17.63;7.93;;;;;;;11.57;52.40;98346.25;5118893;27;20512;-90
2024/01/18 09:01:49;;;;;;;17.87;9.00;;;;;;;11.43;52.84;98349.00;5124899;27;20225;-89
2024/01/18 09:04:15;;;;;;;20.30;9.13;;;;;;;11.60;53.40;98356.56;5098358;28;20188;-90
2024/01/18 09:06:40;;;;;;;16.70;8.73;;;;;;;11.74;53.68;98341.66;5116343;27;20272;-89
2024/01/18 09:09:16;;;;;;;20.37;9.47;;;;;;;11.91;53.21;98336.06;5118741;27;20171;-90
2024/01/18 09:11:41;;;;;;;20.30;9.67;;;;;;;12.02;52.60;98328.25;5118129;27;20549;-89
2024/01/18 09:14:07;;;;;;;19.30;10.23;;;;;;;12.05;51.98;98326.28;5118297;27;20623;-89
2024/01/18 09:16:32;;;;;;;25.43;12.43;;;;;;;12.05;52.15;98318.41;5118373;27;20175;-89
2024/01/18 09:18:59;;;;;;;20.07;11.63;;;;;;;11.99;52.47;98334.56;5118422;27;20546;-89
2024/01/18 09:21:25;;;;;;;15.73;8.87;;;;;;;11.94;53.17;98317.47;5118169;27;20190;-89
2024/01/18 09:23:50;;;;;;;16.93;10.13;;;;;;;12.05;52.91;98315.75;5135557;27;20695;-90
2024/01/18 09:26:16;;;;;;;21.07;10.17;;;;;;;12.14;52.72;98314.25;5135492;27;20198;-89
2024/01/18 09:28:43;;;;;;;21.57;9.87;;;;;;;12.06;53.50;98304.28;5135755;27;20267;-90
2024/01/18 09:31:09;;;;;;;19.77;9.67;;;;;;;12.12;53.58;98295.13;5117876;27;20195;-89
2024/01/18 09:33:37;;;;;;;19.47;10.07;;;;;;;12.20;53.13;98303.31;5135977;27;20185;-89
2024/01/18 09:36:04;;;;;;;18.20;8.97;;;;;;;12.27;53.17;98292.25;5135814;27;20186;-88
2024/01/18 09:38:29;;;;;;;19.93;9.40;;;;;;;12.35;52.69;98286.41;5117775;27;20191;-90
2024/01/18 09:41:02;;;;;;;17.07;8.67;;;;;;;12.20;54.62;98274.41;5117922;27;20192;-90
2024/01/18 09:43:28;;;;;;;21.77;9.53;;;;;;;12.14;56.24;98252.03;5135895;27;20192;-90
2024/01/18 09:45:55;;;;;;;19.73;10.33;;;;;;;12.30;55.76;98241.25;5117559;27;20185;-90
2024/01/18 09:48:22;;;;;;;21.47;9.40;;;;;;;12.10;57.97;98221.72;5117596;27;20198;-91
2024/01/18 09:50:51;;;;;;;34.60;14.77;;;;;;;11.80;58.61;98188.94;5135765;27;20182;-90
2024/01/18 09:53:17;;;;;;;28.17;12.83;;;;;;;11.33;61.05;98176.56;5117651;27;20652;-91
2024/01/18 09:55:43;;;;;;;27.00;11.47;;;;;;;11.10;61.43;98170.34;5114653;27;20217;-90
2024/01/18 09:58:12;;;;;;;22.13;11.63;;;;;;;10.90;62.36;98160.41;5119568;27;20657;-90
2024/01/18 10:00:43;;;;;;;27.83;12.67;;;;;;;10.92;63.16;98153.25;5125924;27;20181;-90
2024/01/18 10:03:09;;;;;;;24.67;11.93;;;;;;;10.78;63.48;98141.09;5119728;27;20170;-90
2024/01/18 10:05:35;;;;;;;28.40;13.23;;;;;;;10.75;64.15;98143.09;5101460;28;20193;-90
2024/01/18 10:08:00;;;;;;;26.53;13.93;;;;;;;10.72;64.99;98152.00;5126562;27;20176;-89
2024/01/18 10:10:27;;;;;;;25.53;13.50;;;;;;;10.76;65.22;98131.66;5118057;27;20184;-91
2024/01/18 10:12:52;;;;;;;25.37;14.27;;;;;;;10.80;65.34;98144.44;5102087;28;20224;-90
2024/01/18 10:15:35;;;;;;;25.70;13.50;;;;;;;10.95;64.77;98169.59;5119916;27;20281;-91
2024/01/18 10:18:04;;;;;;;31.50;15.27;;;;;;;11.35;63.47;98188.63;5121459;27;20185;-89
2024/01/18 10:20:31;;;;;;;30.37;14.70;;;;;;;11.24;63.63;98212.16;5104896;27;20562;-90
2024/01/18 10:22:58;;;;;;;28.10;14.17;;;;;;;11.15;63.65;98206.72;5117174;27;20180;-91
2024/01/18 10:25:28;;;;;;;34.27;13.97;;;;;;;11.15;63.87;98176.09;5124462;27;20183;-91
2024/01/18 10:27:54;;;;;;;35.00;15.43;;;;;;;11.02;65.10;98170.03;5134664;27;20182;-91
2024/01/18 10:30:20;;;;;;;39.70;16.17;;;;;;;10.99;65.61;98170.22;5134469;27;20545;-90
2024/01/18 10:32:46;;;;;;;34.23;15.87;;;;;;;11.07;65.37;98178.41;5135056;27;20285;-90
2024/01/18 10:35:25;;;;;;;29.53;14.67;;;;;;;11.09;65.10;98155.53;5134753;27;20531;-90
2024/01/18 10:38:03;;;;;;;24.00;11.67;;;;;;;11.17;65.82;98168.94;5116814;27;20525;-90
2024/01/18 10:40:32;;;;;;;29.07;13.47;;;;;;;11.34;65.49;98150.25;5134736;27;20175;-90
2024/01/18 10:42:59;;;;;;;27.40;13.53;;;;;;;11.67;64.54;98118.94;5116441;27;20211;-90
2024/01/18 10:45:27;;;;;;;29.70;13.27;;;;;;;11.78;64.74;98115.56;5116403;27;20176;-89
2024/01/18 10:47:55;;;;;;;23.97;12.23;;;;;;;11.94;63.81;98102.97;5135164;27;20189;-89
2024/01/18 10:50:21;;;;;;;27.67;13.00;;;;;;;11.52;68.11;98117.44;5134698;27;20262;-90
2024/01/18 10:52:47;;;;;;;27.40;14.87;;;;;;;11.76;67.38;98103.50;5134734;27;20288;-90
2024/01/18 10:55:13;;;;;;;30.20;16.00;;;;;;;11.80;66.55;98097.91;5134473;27;20168;-90
2024/01/18 10:57:38;;;;;;;32.60;15.47;;;;;;;11.76;66.89;98085.13;5134381;27;20188;-88
2024/01/18 11:00:07;;;;;;;28.23;14.43;;;;;;;11.81;67.87;98064.63;5134443;27;20165;-89
2024/01/18 11:02:40;;;;;;;41.57;20.90;;;;;;;11.66;70.57;98056.88;5116303;27;20568;-89
2024/01/18 11:05:09;;;;;;;25.20;13.73;;;;;;;11.68;72.54;98047.16;5116445;27;20182;-89
2024/01/18 11:07:40;;;;;;;37.10;16.13;;;;;;;11.86;72.08;98039.69;5117439;27;20706;-90
2024/01/18 11:10:10;;;;;;;31.93;15.97;;;;;;;11.99;71.51;98036.97;5116512;27;20189;-91
2024/01/18 11:12:38;;;;;;;36.70;16.27;;;;;;;12.16;72.71;98023.38;5116003;28;20197;-90
2024/01/18 11:15:05;;;;;;;24.97;12.97;;;;;;;12.37;74.04;98011.22;5116293;28;20185;-90
2024/01/18 11:17:31;;;;;;;22.43;11.73;;;;;;;12.51;77.14;98011.00;5134240;28;20615;-90
2024/01/18 11:20:00;;;;;;;23.60;11.83;;;;;;;12.64;78.20;98003.81;5134475;28;20188;-91
2024/01/18 11:22:26;;;;;;;17.40;6.83;;;;;;;12.84;82.42;97995.19;5116636;28;20210;-94
2024/01/18 11:24:53;;;;;;;10.20;3.50;;;;;;;13.23;85.03;98006.13;5119325;28;20624;-95